createdAt,value
2023-01-11T00:01:33.454Z,54.30
2023-01-11T00:04:03.028Z,54.40
2023-01-11T00:06:31.288Z,54.30
2023-01-11T00:08:59.578Z,54.30
2023-01-11T00:11:27.933Z,54.40
2023-01-11T00:13:56.298Z,54.30
2023-01-11T00:16:24.603Z,54.70
2023-01-11T00:18:53.016Z,54.70
2023-01-11T00:21:23.235Z,54.50
2023-01-11T00:23:51.758Z,54.90
2023-01-11T00:26:20.102Z,54.70
2023-01-11T00:28:49.731Z,54.90
2023-01-11T00:31:18.414Z,55.10
2023-01-11T00:33:46.715Z,55.30
2023-01-11T00:36:15.467Z,55.20
2023-01-11T00:38:47.045Z,55.20
2023-01-11T00:41:49.522Z,55.30
2023-01-11T00:44:35.467Z,55.30
2023-01-11T00:47:23.881Z,55.30
2023-01-11T00:49:52.049Z,55.70
2023-01-11T00:52:21.583Z,55.70
2023-01-11T00:54:51.347Z,55.50
2023-01-11T00:57:19.678Z,55.70
2023-01-11T00:59:47.962Z,55.80
2023-01-11T01:02:16.157Z,55.70
2023-01-11T01:04:44.736Z,55.80
2023-01-11T01:07:13.171Z,55.80
2023-01-11T01:09:41.965Z,55.90
2023-01-11T01:12:12.961Z,55.90
2023-01-11T01:14:42.030Z,55.90
2023-01-11T01:17:10.480Z,55.80
2023-01-11T01:19:39.907Z,55.80
2023-01-11T01:22:08.526Z,56.10
2023-01-11T01:24:36.945Z,56.50
2023-01-11T01:27:05.287Z,56.10
2023-01-11T01:29:34.828Z,56.40
2023-01-11T01:32:03.297Z,56.10
2023-01-11T01:34:31.642Z,56.50
2023-01-11T01:37:00.217Z,56.10
2023-01-11T01:39:28.957Z,56.40
2023-01-11T01:41:57.685Z,56.20
2023-01-11T01:44:56.585Z,56.30
2023-01-11T01:47:29.447Z,56.30
2023-01-11T01:49:58.987Z,56.20
2023-01-11T01:52:29.445Z,56.70
2023-01-11T01:55:00.433Z,56.50
2023-01-11T01:57:32.366Z,56.80
2023-01-11T02:00:05.807Z,56.50
2023-01-11T02:02:35.088Z,56.20
2023-01-11T02:05:03.649Z,56.90
2023-01-11T02:07:35.460Z,56.60
2023-01-11T02:10:07.944Z,56.50
2023-01-11T02:12:40.494Z,56.60
2023-01-11T02:15:11.691Z,56.60
2023-01-11T02:17:40.046Z,56.80
2023-01-11T02:20:41.083Z,56.50
2023-01-11T02:23:39.643Z,56.40
2023-01-11T02:26:44.459Z,56.30
2023-01-11T02:29:23.591Z,56.30
2023-01-11T02:32:02.051Z,56.30
2023-01-11T02:34:39.004Z,56.50
2023-01-11T02:37:15.978Z,56.40
2023-01-11T02:39:51.032Z,56.40
2023-01-11T02:42:46.083Z,56.30
2023-01-11T02:45:26.446Z,56.40
2023-01-11T02:48:01.257Z,56.70
2023-01-11T02:50:36.018Z,56.60
2023-01-11T02:53:10.511Z,56.50
2023-01-11T02:55:42.534Z,56.40
2023-01-11T02:58:13.037Z,56.50
2023-01-11T03:00:44.163Z,56.40
2023-01-11T03:03:16.525Z,56.50
2023-01-11T03:05:50.243Z,56.20
2023-01-11T03:08:46.927Z,56.50
2023-01-11T03:11:41.581Z,56.20
2023-01-11T03:14:20.898Z,56.80
2023-01-11T03:16:56.488Z,56.70
2023-01-11T03:19:35.586Z,56.30
2023-01-11T03:22:11.072Z,57.00
2023-01-11T03:24:46.276Z,56.50
2023-01-11T03:27:22.316Z,56.70
2023-01-11T03:29:53.381Z,56.80
2023-01-11T03:32:29.416Z,56.70
2023-01-11T03:35:16.972Z,57.20
2023-01-11T03:37:51.002Z,57.20
2023-01-11T03:40:25.331Z,57.00
2023-01-11T03:43:13.304Z,57.40
2023-01-11T03:45:47.726Z,57.80
2023-01-11T03:48:20.767Z,58.00
2023-01-11T03:50:51.350Z,58.20
2023-01-11T03:53:21.878Z,58.30
2023-01-11T03:55:55.640Z,58.40
2023-01-11T03:58:24.646Z,58.50
2023-01-11T04:00:53.205Z,58.70
2023-01-11T04:03:25.485Z,58.80
2023-01-11T04:05:59.739Z,59.20
2023-01-11T04:08:31.111Z,59.00
2023-01-11T04:10:59.711Z,59.10
2023-01-11T04:13:28.240Z,58.80
2023-01-11T04:15:56.802Z,58.80
2023-01-11T04:18:27.039Z,59.70
2023-01-11T04:20:55.406Z,59.40
2023-01-11T04:23:23.679Z,59.40
2023-01-11T04:25:53.403Z,59.40
2023-01-11T04:28:21.736Z,59.80
2023-01-11T04:30:50.197Z,59.70
2023-01-11T04:33:19.584Z,59.40
2023-01-11T04:35:50.949Z,59.70
2023-01-11T04:38:19.786Z,59.90
2023-01-11T04:40:49.111Z,60.00
2023-01-11T04:43:16.532Z,59.70
2023-01-11T04:45:44.997Z,60.00
2023-01-11T04:48:13.159Z,59.90
2023-01-11T04:50:42.167Z,60.10
2023-01-11T04:53:11.628Z,60.40
2023-01-11T04:55:40.054Z,60.50
2023-01-11T04:58:08.483Z,60.30
2023-01-11T05:00:36.545Z,60.20
2023-01-11T05:03:04.840Z,60.40
2023-01-11T05:05:34.007Z,60.80
2023-01-11T05:08:02.517Z,60.40
2023-01-11T05:10:33.135Z,60.90
2023-01-11T05:13:01.610Z,61.40
2023-01-11T05:15:29.801Z,61.20
2023-01-11T05:17:58.116Z,61.30
2023-01-11T05:20:26.235Z,61.20
2023-01-11T05:22:54.644Z,61.30
2023-01-11T05:25:23.219Z,61.60
2023-01-11T05:27:53.218Z,61.60
2023-01-11T05:30:21.472Z,62.00
2023-01-11T05:32:49.582Z,61.90
2023-01-11T05:35:17.894Z,61.70
2023-01-11T05:37:46.263Z,61.90
2023-01-11T05:40:14.823Z,62.20
2023-01-11T05:42:43.701Z,61.80
2023-01-11T05:45:32.866Z,62.10
2023-01-11T05:48:01.338Z,61.70
2023-01-11T05:50:30.746Z,61.90
2023-01-11T05:52:59.094Z,61.80
2023-01-11T05:55:27.352Z,62.10
2023-01-11T05:57:55.672Z,62.00
2023-01-11T06:00:25.550Z,61.90
2023-01-11T06:02:53.860Z,61.80
2023-01-11T06:05:22.191Z,61.60
2023-01-11T06:07:50.583Z,61.90
2023-01-11T06:10:19.580Z,61.60
2023-01-11T06:13:13.142Z,62.00
2023-01-11T06:15:42.870Z,61.90
2023-01-11T06:18:12.037Z,61.90
2023-01-11T06:20:40.642Z,61.60
2023-01-11T06:23:09.163Z,61.90
2023-01-11T06:25:38.160Z,61.90
2023-01-11T06:28:06.644Z,61.80
2023-01-11T06:30:35.234Z,62.00
2023-01-11T06:33:06.966Z,62.20
2023-01-11T06:35:38.344Z,62.30
2023-01-11T06:38:06.600Z,62.00
2023-01-11T06:40:34.754Z,62.30
2023-01-11T06:43:03.072Z,62.30
2023-01-11T06:45:32.028Z,62.40
2023-01-11T06:48:00.857Z,62.20
2023-01-11T06:50:30.422Z,62.30
2023-01-11T06:53:01.909Z,62.20
2023-01-11T06:55:31.891Z,62.30
2023-01-11T06:58:00.412Z,62.60
2023-01-11T07:00:28.835Z,62.50
2023-01-11T07:02:57.243Z,62.70
2023-01-11T07:05:25.417Z,62.50
2023-01-11T07:07:55.848Z,62.40
2023-01-11T07:10:24.121Z,62.50
2023-01-11T07:12:53.614Z,62.30
2023-01-11T07:15:22.322Z,62.50
2023-01-11T07:17:55.239Z,62.00
2023-01-11T07:20:24.260Z,62.70
2023-01-11T07:22:52.836Z,62.70
2023-01-11T07:25:22.375Z,62.60
2023-01-11T07:27:50.664Z,62.90
2023-01-11T07:30:19.477Z,63.00
2023-01-11T07:32:47.675Z,62.60
2023-01-11T07:35:16.271Z,62.50
2023-01-11T07:37:45.530Z,62.90
2023-01-11T07:40:16.442Z,62.80
2023-01-11T07:43:07.707Z,62.60
2023-01-11T07:45:45.391Z,62.60
2023-01-11T07:48:15.784Z,62.90
2023-01-11T07:50:45.215Z,62.90
2023-01-11T07:53:14.723Z,62.60
2023-01-11T07:55:43.018Z,62.70
2023-01-11T07:58:14.086Z,62.60
2023-01-11T08:00:42.632Z,62.70
2023-01-11T08:03:11.238Z,62.80
2023-01-11T08:05:40.727Z,62.70
2023-01-11T08:08:09.327Z,63.00
2023-01-11T08:10:39.186Z,63.00
2023-01-11T08:13:32.412Z,62.70
2023-01-11T08:16:01.033Z,63.00
2023-01-11T08:18:29.314Z,63.00
2023-01-11T08:20:58.171Z,63.40
2023-01-11T08:23:27.215Z,63.60
2023-01-11T08:25:58.145Z,63.30
2023-01-11T08:28:27.820Z,63.40
2023-01-11T08:30:56.046Z,63.60
2023-01-11T08:33:24.860Z,63.60
2023-01-11T08:35:53.045Z,63.50
2023-01-11T08:38:21.208Z,63.40
2023-01-11T08:40:49.689Z,63.50
2023-01-11T08:43:17.947Z,63.30
2023-01-11T08:45:47.710Z,63.50
2023-01-11T08:48:16.055Z,63.30
2023-01-11T08:50:45.104Z,63.30
2023-01-11T08:53:13.364Z,63.50
2023-01-11T08:55:44.650Z,63.20
2023-01-11T08:58:12.885Z,63.40
2023-01-11T09:00:41.326Z,63.70
2023-01-11T09:03:12.067Z,63.60
2023-01-11T09:05:41.008Z,63.40
2023-01-11T09:08:09.975Z,63.30
2023-01-11T09:10:39.211Z,63.70
2023-01-11T09:13:07.498Z,63.70
2023-01-11T09:15:35.714Z,63.90
2023-01-11T09:18:05.093Z,63.60
2023-01-11T09:20:34.848Z,63.80
2023-01-11T09:23:03.366Z,63.80
2023-01-11T09:25:31.825Z,64.00
2023-01-11T09:28:00.128Z,64.30
2023-01-11T09:30:28.384Z,64.40
2023-01-11T09:32:57.584Z,64.00
2023-01-11T09:35:27.165Z,64.00
2023-01-11T09:37:58.384Z,64.00
2023-01-11T09:40:34.858Z,64.10
2023-01-11T09:43:07.182Z,63.70
2023-01-11T09:45:36.578Z,64.20
2023-01-11T09:48:15.421Z,64.30
2023-01-11T09:50:48.809Z,64.10
2023-01-11T09:53:24.317Z,64.00
2023-01-11T09:55:54.131Z,64.00
2023-01-11T09:58:46.617Z,64.00
2023-01-11T10:01:20.056Z,64.00
2023-01-11T10:04:40.215Z,64.00
2023-01-11T10:07:42.971Z,64.20
2023-01-11T10:18:28.385Z,63.80
2023-01-11T10:19:35.023Z,63.70
2023-01-11T10:22:12.283Z,63.80
2023-01-11T10:24:43.106Z,64.00
2023-01-11T10:27:21.838Z,63.90
2023-01-11T10:30:12.821Z,63.90
2023-01-11T10:32:54.102Z,63.70
2023-01-11T10:35:45.595Z,63.80
2023-01-11T10:38:42.627Z,64.00
2023-01-11T10:41:25.825Z,63.70
2023-01-11T10:44:05.084Z,63.90
2023-01-11T10:46:36.804Z,63.70
2023-01-11T10:49:25.962Z,63.60
2023-01-11T10:51:58.988Z,63.50
2023-01-11T10:54:32.016Z,63.50
2023-01-11T10:57:13.397Z,63.90
2023-01-11T11:00:02.735Z,63.50
2023-01-11T11:02:48.447Z,63.60
2023-01-11T11:05:29.003Z,63.60
2023-01-11T11:08:02.229Z,63.40
2023-01-11T11:10:35.645Z,63.20
2023-01-11T11:13:12.651Z,63.70
2023-01-11T11:15:50.775Z,63.60
2023-01-11T11:18:19.064Z,63.10
2023-01-11T11:20:47.558Z,63.40
2023-01-11T11:23:17.885Z,63.70
2023-01-11T11:25:50.456Z,63.70
2023-01-11T11:28:30.202Z,64.00
2023-01-11T11:31:02.984Z,63.80
2023-01-11T11:33:35.924Z,64.10
2023-01-11T11:36:07.652Z,63.90
2023-01-11T11:38:37.881Z,64.20
2023-01-11T11:41:08.831Z,64.40
2023-01-11T11:43:39.185Z,70.70
2023-01-11T11:46:24.707Z,70.70
2023-01-11T11:49:12.107Z,70.70
2023-01-11T11:51:41.898Z,70.70
2023-01-11T11:54:24.313Z,70.80
2023-01-11T11:56:59.159Z,71.10
2023-01-11T11:59:33.291Z,71.10
2023-01-11T12:02:06.227Z,71.10
2023-01-11T12:04:47.989Z,71.00
2023-01-11T12:07:19.671Z,71.20
2023-01-11T12:09:50.546Z,71.20
2023-01-11T12:12:23.486Z,71.20
2023-01-11T12:15:13.396Z,71.10
2023-01-11T12:17:51.042Z,71.40
2023-01-11T12:20:33.628Z,71.40
2023-01-11T12:23:16.881Z,71.30
2023-01-11T12:26:15.962Z,71.40
2023-01-11T12:29:09.854Z,71.30
2023-01-11T12:32:03.172Z,71.20
2023-01-11T12:34:52.949Z,71.20
2023-01-11T12:37:35.767Z,71.40
2023-01-11T12:40:14.661Z,71.40
2023-01-11T12:43:04.859Z,71.40
2023-01-11T12:45:43.882Z,71.50
2023-01-11T12:48:30.109Z,71.40
2023-01-11T12:51:13.258Z,71.60
2023-01-11T12:53:59.531Z,71.60
2023-01-11T12:56:45.126Z,71.60
2023-01-11T12:59:26.683Z,71.50
2023-01-11T13:02:04.194Z,71.60
2023-01-11T13:04:52.001Z,71.40
2023-01-11T13:07:35.495Z,71.50
2023-01-11T13:10:14.363Z,71.60
2023-01-11T13:12:46.928Z,71.60
2023-01-11T13:15:29.179Z,71.70
2023-01-11T13:18:02.539Z,71.50
2023-01-11T13:20:59.410Z,71.60
2023-01-11T13:23:36.023Z,71.50
2023-01-11T13:26:20.654Z,71.60
2023-01-11T13:28:53.818Z,71.70
2023-01-11T13:31:26.326Z,71.60
2023-01-11T13:33:59.989Z,71.60
2023-01-11T13:36:34.176Z,71.60
2023-01-11T13:39:11.317Z,71.80
2023-01-11T13:41:44.904Z,71.80
2023-01-11T13:44:17.191Z,71.70
2023-01-11T13:46:54.765Z,71.60
2023-01-11T13:49:38.013Z,71.70
2023-01-11T13:52:13.245Z,71.80
2023-01-11T13:54:49.075Z,71.80
2023-01-11T13:57:26.027Z,71.70
2023-01-11T13:59:59.296Z,71.70
2023-01-11T14:02:38.213Z,71.90
2023-01-11T14:05:14.713Z,71.80
2023-01-11T14:07:56.035Z,71.80
2023-01-11T14:10:49.425Z,71.90
2023-01-11T14:13:58.925Z,71.70
2023-01-11T14:16:37.708Z,71.90
2023-01-11T14:19:17.504Z,71.80
2023-01-11T14:22:00.873Z,71.70
2023-01-11T14:24:32.185Z,71.90
2023-01-11T14:27:35.247Z,71.90
2023-01-11T14:30:20.431Z,71.80
2023-01-11T14:33:25.683Z,71.80
2023-01-11T14:36:09.135Z,71.80
2023-01-11T14:38:52.317Z,71.90
2023-01-11T14:41:47.978Z,72.00
2023-01-11T14:44:40.100Z,71.70
2023-01-11T14:47:34.127Z,72.00
2023-01-11T14:50:18.288Z,72.00
2023-01-11T14:52:48.026Z,72.10
2023-01-11T14:55:24.449Z,72.10
2023-01-11T14:58:03.959Z,72.00
2023-01-11T15:01:09.078Z,72.00
2023-01-11T15:03:50.493Z,71.80
2023-01-11T15:06:22.982Z,72.00
2023-01-11T15:08:54.942Z,72.00
2023-01-11T15:11:36.170Z,72.00
2023-01-11T15:14:25.453Z,72.00
2023-01-11T15:17:13.338Z,72.00
2023-01-11T15:19:44.783Z,71.90
2023-01-11T15:22:26.308Z,71.80
2023-01-11T15:25:03.330Z,71.80
2023-01-11T15:27:36.524Z,72.00
2023-01-11T15:30:08.130Z,71.80
2023-01-11T15:32:37.702Z,71.90
2023-01-11T15:35:33.341Z,72.00
2023-01-11T15:38:09.838Z,72.10
2023-01-11T15:40:41.739Z,72.10
2023-01-11T15:43:44.650Z,72.10
2023-01-11T15:46:55.643Z,72.30
2023-01-11T15:50:15.182Z,72.10
2023-01-11T15:53:10.127Z,72.20
2023-01-11T15:56:26.488Z,72.10
2023-01-11T15:59:22.176Z,72.30
2023-01-11T16:02:11.252Z,72.10
2023-01-11T16:04:43.905Z,72.10
2023-01-11T16:07:22.188Z,72.20
2023-01-11T16:10:16.083Z,72.20
2023-01-11T16:12:59.633Z,72.10
2023-01-11T16:15:39.761Z,72.10
2023-01-11T16:18:14.647Z,72.10
2023-01-11T16:20:46.633Z,72.10
2023-01-11T16:23:20.824Z,72.20
2023-01-11T16:25:56.531Z,72.20
2023-01-11T16:28:26.241Z,72.10
2023-01-11T16:30:57.789Z,72.20
2023-01-11T16:33:29.298Z,72.30
2023-01-11T16:36:11.653Z,72.10
2023-01-11T16:38:53.499Z,72.20
2023-01-11T16:41:26.761Z,72.30
2023-01-11T16:44:03.605Z,72.20
2023-01-11T16:47:14.318Z,72.30
2023-01-11T16:49:48.833Z,72.20
2023-01-11T16:52:48.044Z,72.40
2023-01-11T16:55:39.872Z,72.30
2023-01-11T16:58:25.639Z,72.30
2023-01-11T17:01:00.455Z,72.10
2023-01-11T17:03:30.999Z,72.30
2023-01-11T17:06:19.158Z,72.40
2023-01-11T17:08:52.123Z,72.40
2023-01-11T17:11:45.375Z,72.50
2023-01-11T17:14:55.236Z,72.40
2023-01-11T17:17:29.449Z,72.50
2023-01-11T17:19:59.893Z,72.30
2023-01-11T17:22:30.623Z,72.40
2023-01-11T17:25:01.597Z,72.20
2023-01-11T17:27:35.802Z,72.40
2023-01-11T17:30:18.108Z,72.30
2023-01-11T17:32:49.445Z,72.40
2023-01-11T17:35:20.974Z,72.30
2023-01-11T17:37:51.328Z,72.40
2023-01-11T17:40:25.033Z,72.20
2023-01-11T17:43:12.254Z,72.30
2023-01-11T17:45:43.474Z,72.20
2023-01-11T17:48:14.135Z,72.20
2023-01-11T17:50:49.989Z,72.20
2023-01-11T17:53:22.781Z,72.20
2023-01-11T17:55:54.523Z,72.20
2023-01-11T17:58:27.102Z,72.10
2023-01-11T18:01:25.193Z,72.20
2023-01-11T18:03:56.986Z,72.20
2023-01-11T18:06:32.529Z,72.20
2023-01-11T18:09:01.999Z,72.10
2023-01-11T18:11:32.857Z,72.30
2023-01-11T18:14:02.746Z,72.20
2023-01-11T18:16:33.216Z,72.20
2023-01-11T18:19:01.811Z,72.20
2023-01-11T18:21:40.642Z,72.40
2023-01-11T18:24:42.930Z,72.10
2023-01-11T18:27:18.505Z,72.20
2023-01-11T18:29:51.785Z,72.10
2023-01-11T18:32:22.195Z,72.20
2023-01-11T18:34:54.200Z,72.10
2023-01-11T18:37:22.750Z,72.10
2023-01-11T18:39:54.288Z,71.90
2023-01-11T18:42:28.011Z,71.90
2023-01-11T18:44:57.112Z,72.00
2023-01-11T18:47:29.414Z,72.10
2023-01-11T18:49:58.240Z,72.00
2023-01-11T18:52:29.553Z,72.10
2023-01-11T18:54:58.629Z,72.00
2023-01-11T18:57:26.977Z,72.00
2023-01-11T18:59:55.639Z,71.90
2023-01-11T19:02:27.268Z,72.00
2023-01-11T19:04:57.475Z,72.20
2023-01-11T19:07:27.911Z,72.10
2023-01-11T19:09:56.459Z,72.10
2023-01-11T19:12:44.685Z,72.10
2023-01-11T19:15:13.685Z,72.00
2023-01-11T19:17:44.433Z,71.90
2023-01-11T19:20:16.952Z,72.00
2023-01-11T19:23:04.892Z,71.90
2023-01-11T19:25:38.617Z,72.00
2023-01-11T19:28:07.282Z,72.00
2023-01-11T19:30:35.832Z,71.80
2023-01-11T19:33:06.875Z,71.90
2023-01-11T19:35:35.206Z,71.90
2023-01-11T19:38:03.529Z,71.90
2023-01-11T19:40:31.900Z,71.80
2023-01-11T19:43:00.604Z,71.90
2023-01-11T19:45:28.816Z,71.90
2023-01-11T19:47:59.148Z,71.70
2023-01-11T19:50:29.110Z,71.80
2023-01-11T19:52:57.872Z,71.80
2023-01-11T19:55:26.346Z,71.80
2023-01-11T19:57:54.594Z,71.70
2023-01-11T20:00:23.058Z,71.50
2023-01-11T20:02:51.350Z,71.70
2023-01-11T20:05:19.701Z,71.60
2023-01-11T20:07:50.398Z,71.60
2023-01-11T20:10:18.891Z,71.50
2023-01-11T20:12:48.351Z,71.60
2023-01-11T20:15:17.832Z,71.50
2023-01-11T20:17:46.141Z,71.30
2023-01-11T20:20:15.222Z,71.40
2023-01-11T20:22:45.369Z,71.30
2023-01-11T20:25:17.669Z,71.40
2023-01-11T20:27:45.958Z,71.40
2023-01-11T20:30:17.165Z,71.40
2023-01-11T20:32:45.616Z,71.20
2023-01-11T20:35:13.987Z,71.30
2023-01-11T20:37:42.377Z,71.20
2023-01-11T20:40:14.270Z,71.20
2023-01-11T20:42:44.041Z,71.20
2023-01-11T20:45:12.782Z,71.20
2023-01-11T20:47:41.011Z,71.20
2023-01-11T20:50:10.654Z,71.10
2023-01-11T20:52:38.911Z,71.20
2023-01-11T20:55:08.209Z,71.10
2023-01-11T20:57:36.386Z,71.00
2023-01-11T21:02:38.007Z,71.10
2023-01-11T21:05:07.094Z,70.90
2023-01-11T21:07:35.574Z,71.10
2023-01-11T21:10:04.246Z,71.10
2023-01-11T21:12:32.574Z,70.90
2023-01-11T21:15:01.424Z,70.90
2023-01-11T21:17:31.094Z,70.90
2023-01-11T21:19:59.619Z,70.90
2023-01-11T21:22:28.238Z,70.80
2023-01-11T21:24:56.850Z,70.80
2023-01-11T21:27:25.244Z,70.80
2023-01-11T21:29:53.609Z,70.80
2023-01-11T21:32:21.931Z,70.80
2023-01-11T21:34:51.505Z,70.80
2023-01-11T21:37:23.762Z,70.80
2023-01-11T21:39:52.469Z,64.40
2023-01-11T21:42:20.771Z,64.40
2023-01-11T21:44:49.873Z,70.70
2023-01-11T21:47:19.662Z,70.90
2023-01-11T21:49:48.234Z,64.40
2023-01-11T21:52:17.866Z,70.70
2023-01-11T21:54:46.351Z,64.30
2023-01-11T21:57:14.709Z,70.70
2023-01-11T21:59:43.230Z,64.10
2023-01-11T22:02:11.542Z,64.20
2023-01-11T22:04:40.172Z,64.40
2023-01-11T22:07:09.281Z,64.30
2023-01-11T22:09:47.031Z,64.50
2023-01-11T22:12:21.488Z,64.40
2023-01-11T22:14:49.969Z,63.90
2023-01-11T22:17:18.409Z,64.20
2023-01-11T22:19:46.655Z,64.00
2023-01-11T22:22:15.023Z,64.30
2023-01-11T22:24:44.672Z,64.00
2023-01-11T22:27:13.059Z,64.10
2023-01-11T22:29:43.147Z,64.30
2023-01-11T22:32:11.876Z,64.20
2023-01-11T22:34:40.459Z,64.20
2023-01-11T22:37:09.063Z,63.90
2023-01-11T22:39:37.968Z,63.90
2023-01-11T22:42:08.338Z,64.00
2023-01-11T22:44:36.759Z,64.00
2023-01-11T22:47:05.242Z,63.90
2023-01-11T22:49:33.490Z,64.10
2023-01-11T22:52:04.355Z,64.00
2023-01-11T22:54:32.495Z,64.10
2023-01-11T22:57:00.950Z,64.50
2023-01-11T22:59:30.568Z,64.40
2023-01-11T23:01:58.976Z,64.40
2023-01-11T23:04:27.279Z,64.30
2023-01-11T23:06:57.290Z,64.30
2023-01-11T23:09:27.108Z,64.10
2023-01-11T23:12:12.954Z,64.40
2023-01-11T23:14:42.455Z,64.10
2023-01-11T23:17:11.507Z,64.20
2023-01-11T23:19:41.586Z,64.20
2023-01-11T23:22:11.116Z,64.40
2023-01-11T23:24:41.023Z,64.10
2023-01-11T23:27:09.392Z,64.40
2023-01-11T23:29:37.706Z,63.90
2023-01-11T23:32:08.342Z,64.40
2023-01-11T23:34:36.555Z,64.20
2023-01-11T23:41:33.196Z,64.40
2023-01-11T23:44:01.992Z,64.20
2023-01-11T23:46:47.677Z,64.20
2023-01-11T23:49:17.918Z,64.00
2023-01-11T23:51:46.457Z,64.10
2023-01-11T23:54:15.036Z,64.30
2023-01-11T23:56:43.700Z,64.40
2023-01-11T23:59:12.371Z,64.20
